createdAt,value
2023-01-05T00:01:13.323Z,91.20
2023-01-05T00:03:40.424Z,91.10
2023-01-05T00:06:11.381Z,91.10
2023-01-05T00:08:39.092Z,91.00
2023-01-05T00:11:36.366Z,90.90
2023-01-05T00:14:21.801Z,91.00
2023-01-05T00:17:07.128Z,90.90
2023-01-05T00:19:52.716Z,91.00
2023-01-05T00:22:32.007Z,91.00
2023-01-05T00:25:04.796Z,90.80
2023-01-05T00:27:38.150Z,91.00
2023-01-05T00:30:05.833Z,91.40
2023-01-05T00:32:32.939Z,91.60
2023-01-05T00:35:00.245Z,91.70
2023-01-05T00:37:30.751Z,91.70
2023-01-05T00:39:57.535Z,91.80
2023-01-05T00:42:24.336Z,91.80
2023-01-05T00:44:51.179Z,91.80
2023-01-05T00:47:17.915Z,91.80
2023-01-05T00:49:44.691Z,91.80
2023-01-05T00:52:11.394Z,91.80
2023-01-05T00:54:38.158Z,91.90
2023-01-05T00:57:07.154Z,91.90
2023-01-05T00:59:33.922Z,91.90
2023-01-05T01:02:00.849Z,91.90
2023-01-05T01:04:31.391Z,91.90
2023-01-05T01:06:58.190Z,91.80
2023-01-05T01:09:25.208Z,91.80
2023-01-05T01:14:17.903Z,91.90
2023-01-05T01:16:45.316Z,91.90
2023-01-05T01:19:30.363Z,91.90
2023-01-05T01:21:57.110Z,91.90
2023-01-05T01:24:27.482Z,91.80
2023-01-05T01:26:55.260Z,91.90
2023-01-05T01:29:23.485Z,91.90
2023-01-05T01:31:52.408Z,91.90
2023-01-05T01:34:19.471Z,91.90
2023-01-05T01:36:46.587Z,91.80
2023-01-05T01:39:14.266Z,91.80
2023-01-05T01:41:41.278Z,91.80
2023-01-05T01:44:45.670Z,91.90
2023-01-05T01:47:20.043Z,91.90
2023-01-05T01:49:46.842Z,91.90
2023-01-05T01:52:14.242Z,91.80
2023-01-05T01:54:41.282Z,91.80
2023-01-05T01:57:11.675Z,91.90
2023-01-05T01:59:38.745Z,92.00
2023-01-05T02:02:07.913Z,91.90
2023-01-05T02:04:36.808Z,92.00
2023-01-05T02:07:04.910Z,91.90
2023-01-05T02:09:32.304Z,91.90
2023-01-05T02:12:30.314Z,92.00
2023-01-05T02:15:35.763Z,92.00
2023-01-05T02:18:17.162Z,91.90
2023-01-05T02:21:02.325Z,91.90
2023-01-05T02:24:07.941Z,91.90
2023-01-05T02:26:59.280Z,91.90
2023-01-05T02:29:34.004Z,91.90
2023-01-05T02:32:19.685Z,91.90
2023-01-05T02:35:12.467Z,91.80
2023-01-05T02:37:52.192Z,91.80
2023-01-05T02:40:27.580Z,91.80
2023-01-05T02:42:56.679Z,91.80
2023-01-05T02:45:24.436Z,91.70
2023-01-05T02:47:51.263Z,91.70
2023-01-05T02:50:34.608Z,91.50
2023-01-05T02:53:27.582Z,91.40
2023-01-05T02:56:09.250Z,91.50
2023-01-05T02:58:41.770Z,91.60
2023-01-05T03:01:17.585Z,91.50
2023-01-05T03:03:56.047Z,91.50
2023-01-05T03:06:30.534Z,91.40
2023-01-05T03:09:01.740Z,91.50
2023-01-05T03:11:57.777Z,91.60
2023-01-05T03:14:39.143Z,91.70
2023-01-05T03:17:10.820Z,91.80
2023-01-05T03:19:41.051Z,91.80
2023-01-05T03:22:48.407Z,91.90
2023-01-05T03:25:38.553Z,91.90
2023-01-05T03:28:27.433Z,91.90
2023-01-05T03:31:32.706Z,91.90
2023-01-05T03:34:26.502Z,91.90
2023-01-05T03:36:59.353Z,91.90
2023-01-05T03:39:30.123Z,92.00
2023-01-05T03:41:57.716Z,91.90
2023-01-05T03:44:24.594Z,92.00
2023-01-05T03:46:51.579Z,92.00
2023-01-05T03:49:18.631Z,92.00
2023-01-05T03:51:45.370Z,92.00
2023-01-05T03:54:12.156Z,92.00
2023-01-05T03:56:39.217Z,92.00
2023-01-05T03:59:05.917Z,92.00
2023-01-05T04:01:32.608Z,92.00
2023-01-05T04:03:59.507Z,92.00
2023-01-05T04:06:26.279Z,92.00
2023-01-05T04:08:53.132Z,92.00
2023-01-05T04:11:22.174Z,92.00
2023-01-05T04:13:49.009Z,92.00
2023-01-05T04:16:16.080Z,92.00
2023-01-05T04:18:42.923Z,92.00
2023-01-05T04:21:10.086Z,92.00
2023-01-05T04:23:36.918Z,92.00
2023-01-05T04:26:04.405Z,92.00
2023-01-05T04:28:31.161Z,92.00
2023-01-05T04:30:57.988Z,92.00
2023-01-05T04:33:26.020Z,92.00
2023-01-05T04:35:52.771Z,92.00
2023-01-05T04:38:19.604Z,92.00
2023-01-05T04:40:50.852Z,92.00
2023-01-05T04:43:18.899Z,92.00
2023-01-05T04:45:48.967Z,92.00
2023-01-05T04:48:16.493Z,92.00
2023-01-05T04:50:43.534Z,92.00
2023-01-05T04:53:10.666Z,92.00
2023-01-05T04:55:37.429Z,92.00
2023-01-05T04:58:08.353Z,92.00
2023-01-05T05:00:38.649Z,92.00
2023-01-05T05:03:05.503Z,92.00
2023-01-05T05:05:32.381Z,92.00
2023-01-05T05:07:59.205Z,92.00
2023-01-05T05:10:26.110Z,92.00
2023-01-05T05:12:52.779Z,92.00
2023-01-05T05:15:19.660Z,92.00
2023-01-05T05:17:46.433Z,92.00
2023-01-05T05:20:13.251Z,92.00
2023-01-05T05:22:40.055Z,92.00
2023-01-05T05:25:07.552Z,92.00
2023-01-05T05:27:34.348Z,92.00
2023-01-05T05:30:01.105Z,92.00
2023-01-05T05:32:27.885Z,92.00
2023-01-05T05:34:54.544Z,92.00
2023-01-05T05:37:21.275Z,92.00
2023-01-05T05:39:47.943Z,92.00
2023-01-05T05:42:14.731Z,92.00
2023-01-05T05:44:41.459Z,92.00
2023-01-05T05:47:08.146Z,92.00
2023-01-05T05:49:34.898Z,92.00
2023-01-05T05:52:01.601Z,92.00
2023-01-05T05:54:28.364Z,92.00
2023-01-05T05:56:55.059Z,92.00
2023-01-05T05:59:21.863Z,92.00
2023-01-05T06:01:48.707Z,92.00
2023-01-05T06:04:15.408Z,92.00
2023-01-05T06:06:42.163Z,92.00
2023-01-05T06:09:08.958Z,92.00
2023-01-05T06:11:35.792Z,92.00
2023-01-05T06:14:03.091Z,92.00
2023-01-05T06:16:29.944Z,92.00
2023-01-05T06:18:56.770Z,92.00
2023-01-05T06:21:23.483Z,92.00
2023-01-05T06:23:50.301Z,92.00
2023-01-05T06:26:17.051Z,92.00
2023-01-05T06:28:43.809Z,92.00
2023-01-05T06:31:10.657Z,92.00
2023-01-05T06:33:37.420Z,92.00
2023-01-05T06:36:04.480Z,92.00
2023-01-05T06:38:31.198Z,92.00
2023-01-05T06:40:59.404Z,92.00
2023-01-05T06:43:26.232Z,92.00
2023-01-05T06:45:53.163Z,92.00
2023-01-05T06:48:20.003Z,92.00
2023-01-05T06:50:46.857Z,92.00
2023-01-05T06:53:13.555Z,92.00
2023-01-05T06:55:40.240Z,92.00
2023-01-05T06:58:07.051Z,92.00
2023-01-05T07:00:33.862Z,92.00
2023-01-05T07:03:00.659Z,92.00
2023-01-05T07:05:27.421Z,92.00
2023-01-05T07:07:54.359Z,91.90
2023-01-05T07:10:21.286Z,91.90
2023-01-05T07:12:48.057Z,91.90
2023-01-05T07:15:14.810Z,91.90
2023-01-05T07:17:41.937Z,91.90
2023-01-05T07:20:09.270Z,91.90
2023-01-05T07:22:36.289Z,91.90
2023-01-05T07:25:03.171Z,91.90
2023-01-05T07:27:29.920Z,91.90
2023-01-05T07:29:56.681Z,91.90
2023-01-05T07:32:23.407Z,91.90
2023-01-05T07:34:55.515Z,91.90
2023-01-05T07:37:24.872Z,91.90
2023-01-05T07:39:52.188Z,91.90
2023-01-05T07:42:18.982Z,91.90
2023-01-05T07:44:45.667Z,91.80
2023-01-05T07:47:12.393Z,91.80
2023-01-05T07:49:39.150Z,91.80
2023-01-05T07:52:05.893Z,91.80
2023-01-05T07:54:32.618Z,91.80
2023-01-05T07:56:59.393Z,91.80
2023-01-05T07:59:26.218Z,91.80
2023-01-05T08:01:53.045Z,91.80
2023-01-05T08:04:19.918Z,91.80
2023-01-05T08:06:46.713Z,91.80
2023-01-05T08:09:32.024Z,91.80
2023-01-05T08:11:58.860Z,91.80
2023-01-05T08:14:25.622Z,91.80
2023-01-05T08:16:52.369Z,91.80
2023-01-05T08:19:19.758Z,91.80
2023-01-05T08:21:46.436Z,91.80
2023-01-05T08:24:13.199Z,91.80
2023-01-05T08:26:40.013Z,91.80
2023-01-05T08:29:06.846Z,91.80
2023-01-05T08:31:37.524Z,91.80
2023-01-05T08:34:05.441Z,91.80
2023-01-05T08:36:33.257Z,91.80
2023-01-05T08:39:03.857Z,91.80
2023-01-05T08:41:32.583Z,91.80
2023-01-05T08:44:01.312Z,91.80
2023-01-05T08:46:32.607Z,91.80
2023-01-05T08:49:01.664Z,91.80
2023-01-05T08:51:29.688Z,91.80
2023-01-05T08:53:56.994Z,91.80
2023-01-05T08:56:30.508Z,91.80
2023-01-05T08:59:00.056Z,91.80
2023-01-05T09:01:27.236Z,91.80
2023-01-05T09:03:54.106Z,91.80
2023-01-05T09:06:20.915Z,91.80
2023-01-05T09:08:48.385Z,91.80
2023-01-05T09:11:20.597Z,91.80
2023-01-05T09:13:49.894Z,91.70
2023-01-05T09:16:42.553Z,91.70
2023-01-05T09:19:06.728Z,91.70
2023-01-05T09:21:33.637Z,91.70
2023-01-05T09:24:00.314Z,91.70
2023-01-05T09:26:27.072Z,91.70
2023-01-05T09:28:54.831Z,91.70
2023-01-05T09:31:23.042Z,91.70
2023-01-05T09:33:50.102Z,91.70
2023-01-05T09:36:18.882Z,91.70
2023-01-05T09:38:50.364Z,91.70
2023-01-05T09:41:28.700Z,91.70
2023-01-05T09:44:30.172Z,91.70
2023-01-05T09:47:04.335Z,91.70
2023-01-05T09:49:33.396Z,91.70
2023-01-05T09:52:03.670Z,91.70
2023-01-05T09:54:33.199Z,91.70
2023-01-05T09:57:09.467Z,91.70
2023-01-05T09:59:39.120Z,91.60
2023-01-05T10:02:33.830Z,91.60
2023-01-05T10:05:02.412Z,91.60
2023-01-05T10:07:45.737Z,91.60
2023-01-05T10:10:29.878Z,91.60
2023-01-05T10:13:04.194Z,91.70
2023-01-05T10:15:34.625Z,91.60
2023-01-05T10:18:10.547Z,91.50
2023-01-05T10:21:01.616Z,91.40
2023-01-05T10:23:46.192Z,91.20
2023-01-05T10:27:06.347Z,91.00
2023-01-05T10:29:49.026Z,90.80
2023-01-05T10:33:14.902Z,90.50
2023-01-05T10:36:02.362Z,90.40
2023-01-05T10:39:04.851Z,89.00
2023-01-05T10:41:50.466Z,86.00
2023-01-05T10:44:34.919Z,83.50
2023-01-05T10:47:02.268Z,78.50
2023-01-05T10:49:31.951Z,79.10
2023-01-05T10:52:01.110Z,80.00
2023-01-05T10:54:44.139Z,78.00
2023-01-05T10:57:34.839Z,76.60
2023-01-05T11:00:16.902Z,78.70
2023-01-05T11:02:52.518Z,74.30
2023-01-05T11:05:48.877Z,75.80
2023-01-05T11:08:21.790Z,75.60
2023-01-05T11:10:57.880Z,71.10
2023-01-05T11:13:36.348Z,70.90
2023-01-05T11:16:14.820Z,64.70
2023-01-05T11:18:50.940Z,61.20
2023-01-05T11:21:19.393Z,57.80
2023-01-05T11:23:50.547Z,63.10
2023-01-05T11:26:25.036Z,48.60
2023-01-05T11:29:09.805Z,50.80
2023-01-05T11:31:38.605Z,50.30
2023-01-05T11:34:37.375Z,54.70
2023-01-05T11:37:16.978Z,51.60
2023-01-05T11:39:46.710Z,26.40
2023-01-05T11:42:25.752Z,34.50
2023-01-05T11:44:57.743Z,32.40
2023-01-05T11:47:46.546Z,21.90
2023-01-05T11:50:13.180Z,16.20
2023-01-05T11:52:41.551Z,16.80
2023-01-05T11:55:20.526Z,17.00
2023-01-05T11:57:59.406Z,21.50
2023-01-05T12:00:35.014Z,15.90
2023-01-05T12:03:23.411Z,18.60
2023-01-05T12:05:58.390Z,18.80
2023-01-05T12:08:37.231Z,16.80
2023-01-05T12:11:19.008Z,20.80
2023-01-05T12:13:55.976Z,21.70
2023-01-05T12:16:44.690Z,22.20
2023-01-05T12:19:36.469Z,19.60
2023-01-05T12:22:30.515Z,14.70
2023-01-05T12:25:14.303Z,11.10
2023-01-05T12:28:04.888Z,13.60
2023-01-05T12:33:35.534Z,9.70
2023-01-05T12:34:23.254Z,8.40
2023-01-05T12:37:23.014Z,8.90
2023-01-05T12:40:08.243Z,10.60
2023-01-05T12:42:58.121Z,8.30
2023-01-05T12:45:54.000Z,6.70
2023-01-05T12:48:48.565Z,9.80
2023-01-05T12:51:40.827Z,9.30
2023-01-05T12:54:38.102Z,8.30
2023-01-05T12:57:16.151Z,6.00
2023-01-05T12:59:58.847Z,8.90
2023-01-05T13:02:34.538Z,2.60
2023-01-05T13:05:07.923Z,3.40
2023-01-05T13:07:43.070Z,2.70
2023-01-05T13:10:32.881Z,4.90
2023-01-05T13:13:10.829Z,5.80
2023-01-05T13:15:45.370Z,4.50
2023-01-05T13:18:18.332Z,4.80
2023-01-05T13:21:12.793Z,6.30
2023-01-05T13:23:45.686Z,4.30
2023-01-05T13:26:17.374Z,3.90
2023-01-05T13:28:47.479Z,4.40
2023-01-05T13:31:26.482Z,4.40
2023-01-05T13:34:27.573Z,6.80
2023-01-05T13:37:23.286Z,2.50
2023-01-05T13:40:18.952Z,5.00
2023-01-05T13:43:14.416Z,5.60
2023-01-05T13:45:59.861Z,6.80
2023-01-05T13:49:03.219Z,6.10
2023-01-05T13:51:52.742Z,4.80
2023-01-05T13:54:43.602Z,3.60
2023-01-05T13:57:27.257Z,4.60
2023-01-05T14:00:11.031Z,5.10
2023-01-05T14:02:42.437Z,9.10
2023-01-05T14:05:37.347Z,7.90
2023-01-05T14:08:14.012Z,11.20
2023-01-05T14:10:40.719Z,12.20
2023-01-05T14:13:42.423Z,14.50
2023-01-05T14:16:34.399Z,16.20
2023-01-05T14:19:19.042Z,21.40
2023-01-05T14:21:53.951Z,29.80
2023-01-05T14:24:32.163Z,49.50
2023-01-05T14:27:02.310Z,61.90
2023-01-05T14:32:27.299Z,75.90
2023-01-05T14:35:11.391Z,81.90
2023-01-05T14:38:04.668Z,84.60
2023-01-05T14:40:48.871Z,86.70
2023-01-05T14:43:21.647Z,87.30
2023-01-05T14:46:10.908Z,87.70
2023-01-05T14:48:58.602Z,88.60
2023-01-05T14:51:33.082Z,89.30
2023-01-05T14:54:05.780Z,89.80
2023-01-05T14:56:35.928Z,89.90
2023-01-05T14:59:16.302Z,90.00
2023-01-05T15:02:00.429Z,90.20
2023-01-05T15:04:35.329Z,90.30
2023-01-05T15:10:39.607Z,90.40
2023-01-05T15:13:42.724Z,90.60
2023-01-05T15:16:16.453Z,90.70
2023-01-05T15:18:54.895Z,90.90
2023-01-05T15:21:48.756Z,90.90
2023-01-05T15:24:54.756Z,90.80
2023-01-05T15:27:52.460Z,90.80
2023-01-05T15:30:34.642Z,90.70
2023-01-05T15:33:27.159Z,90.70
2023-01-05T15:36:00.913Z,90.70
2023-01-05T15:38:29.753Z,90.70
2023-01-05T15:41:19.705Z,90.70
2023-01-05T15:43:47.405Z,90.70
2023-01-05T15:46:22.290Z,90.70
2023-01-05T15:48:52.629Z,90.70
2023-01-05T15:51:24.852Z,90.80
2023-01-05T15:54:04.616Z,90.70
2023-01-05T15:56:39.779Z,90.30
2023-01-05T15:59:41.384Z,88.60
2023-01-05T16:02:28.703Z,85.10
2023-01-05T16:05:08.455Z,82.30
2023-01-05T16:07:35.326Z,78.80
2023-01-05T16:10:02.297Z,75.70
2023-01-05T16:12:29.131Z,73.50
2023-01-05T16:15:04.920Z,70.70
2023-01-05T16:17:37.480Z,70.80
2023-01-05T16:20:15.474Z,70.10
2023-01-05T16:22:52.797Z,69.70
2023-01-05T16:25:30.656Z,69.60
2023-01-05T16:28:03.724Z,67.30
2023-01-05T16:30:33.624Z,66.50
2023-01-05T16:33:12.417Z,65.20
2023-01-05T16:35:55.561Z,64.50
2023-01-05T16:38:29.327Z,56.00
2023-01-05T16:41:07.508Z,60.70
2023-01-05T16:43:39.670Z,61.30
2023-01-05T16:46:25.328Z,59.00
2023-01-05T16:48:56.849Z,55.10
2023-01-05T16:51:32.478Z,53.80
2023-01-05T16:54:14.906Z,55.30
2023-01-05T16:56:52.352Z,60.30
2023-01-05T16:59:40.626Z,60.70
2023-01-05T17:02:30.655Z,62.30
2023-01-05T17:04:57.489Z,61.90
2023-01-05T17:07:24.390Z,61.40
2023-01-05T17:09:51.295Z,62.40
2023-01-05T17:12:18.300Z,60.20
2023-01-05T17:14:46.580Z,61.80
2023-01-05T17:17:14.264Z,61.30
2023-01-05T17:19:41.091Z,62.00
2023-01-05T17:22:11.547Z,65.70
2023-01-05T17:24:39.829Z,68.20
2023-01-05T17:27:06.602Z,69.40
2023-01-05T17:29:34.981Z,71.80
2023-01-05T17:32:01.838Z,71.80
2023-01-05T17:34:28.962Z,72.80
2023-01-05T17:36:59.791Z,76.60
2023-01-05T17:39:26.765Z,80.00
2023-01-05T17:42:13.479Z,82.00
2023-01-05T17:44:40.479Z,83.50
2023-01-05T17:47:07.310Z,84.70
2023-01-05T17:49:34.167Z,85.90
2023-01-05T17:52:00.890Z,87.60
2023-01-05T17:54:27.636Z,88.30
2023-01-05T17:56:54.394Z,88.70
2023-01-05T17:59:21.162Z,89.20
2023-01-05T18:01:48.445Z,89.50
2023-01-05T18:04:15.127Z,89.80
2023-01-05T18:06:41.812Z,89.80
2023-01-05T18:09:08.519Z,89.80
2023-01-05T18:16:34.620Z,90.30
2023-01-05T18:19:01.290Z,90.30
2023-01-05T18:21:28.038Z,90.30
2023-01-05T18:23:54.759Z,90.40
2023-01-05T18:26:21.465Z,90.50
2023-01-05T18:28:48.161Z,90.40
2023-01-05T18:31:15.971Z,90.30
2023-01-05T18:33:43.076Z,90.20
2023-01-05T18:36:13.735Z,90.20
2023-01-05T18:38:42.268Z,90.20
2023-01-05T18:41:09.193Z,90.30
2023-01-05T18:43:36.249Z,90.40
2023-01-05T18:46:03.800Z,90.30
2023-01-05T18:48:30.793Z,90.50
2023-01-05T18:50:57.695Z,90.40
2023-01-05T18:53:25.413Z,90.50
2023-01-05T18:55:52.209Z,90.40
2023-01-05T18:58:19.001Z,90.30
2023-01-05T19:00:46.268Z,90.20
2023-01-05T19:03:13.635Z,90.30
2023-01-05T19:05:42.632Z,90.40
2023-01-05T19:08:10.447Z,90.40
2023-01-05T19:10:37.824Z,90.40
2023-01-05T19:13:05.414Z,90.50
2023-01-05T19:15:33.808Z,90.60
2023-01-05T19:18:00.852Z,90.60
2023-01-05T19:20:27.598Z,90.70
2023-01-05T19:22:54.334Z,90.90
2023-01-05T19:25:21.188Z,90.80
2023-01-05T19:27:47.872Z,90.80
2023-01-05T19:30:16.994Z,90.80
2023-01-05T19:32:43.928Z,90.80
2023-01-05T19:35:10.655Z,90.80
2023-01-05T19:37:42.319Z,90.80
2023-01-05T19:40:10.277Z,90.80
2023-01-05T19:42:37.343Z,90.80
2023-01-05T19:45:04.458Z,90.80
2023-01-05T19:47:31.239Z,90.80
2023-01-05T19:49:57.931Z,90.90
2023-01-05T19:52:29.571Z,90.90
2023-01-05T19:54:56.596Z,91.00
2023-01-05T19:57:23.657Z,91.00
2023-01-05T19:59:51.414Z,91.00
2023-01-05T20:02:18.491Z,91.00
2023-01-05T20:04:46.692Z,91.00
2023-01-05T20:07:13.717Z,91.10
2023-01-05T20:09:40.616Z,91.10
2023-01-05T20:12:14.342Z,91.10
2023-01-05T20:14:42.526Z,91.10
2023-01-05T20:17:10.842Z,91.10
2023-01-05T20:19:38.724Z,91.20
2023-01-05T20:22:07.725Z,91.20
2023-01-05T20:24:36.801Z,91.20
2023-01-05T20:27:09.133Z,91.20
2023-01-05T20:29:36.453Z,91.20
2023-01-05T20:32:06.974Z,91.20
2023-01-05T20:34:37.059Z,91.20
2023-01-05T20:37:07.248Z,91.20
2023-01-05T20:39:36.625Z,91.20
2023-01-05T20:42:06.406Z,91.20
2023-01-05T20:44:36.963Z,91.20
2023-01-05T20:47:05.598Z,91.20
2023-01-05T20:49:34.189Z,91.30
2023-01-05T20:52:00.941Z,91.30
2023-01-05T20:54:27.832Z,91.30
2023-01-05T20:56:54.792Z,91.30
2023-01-05T20:59:24.390Z,91.30
2023-01-05T21:01:51.738Z,91.40
2023-01-05T21:04:19.465Z,91.40
2023-01-05T21:06:47.005Z,91.40
2023-01-05T21:09:14.518Z,91.40
2023-01-05T21:11:41.750Z,91.40
2023-01-05T21:14:10.675Z,91.40
2023-01-05T21:16:42.765Z,91.50
2023-01-05T21:19:12.139Z,91.40
2023-01-05T21:21:39.069Z,91.40
2023-01-05T21:24:08.614Z,91.40
2023-01-05T21:26:35.483Z,91.40
2023-01-05T21:29:02.926Z,91.40
2023-01-05T21:31:29.729Z,91.40
2023-01-05T21:33:56.484Z,91.40
2023-01-05T21:36:26.251Z,91.40
2023-01-05T21:39:03.630Z,91.40
2023-01-05T21:41:53.189Z,91.40
2023-01-05T21:44:20.932Z,91.40
2023-01-05T21:46:48.961Z,91.40
2023-01-05T21:49:16.004Z,91.40
2023-01-05T21:52:01.541Z,91.40
2023-01-05T21:54:47.107Z,91.40
2023-01-05T21:57:14.094Z,91.40
2023-01-05T21:59:41.265Z,91.40
2023-01-05T22:02:08.309Z,96.00
2023-01-05T22:04:35.125Z,96.00
2023-01-05T22:07:02.180Z,96.00
2023-01-05T22:09:28.921Z,96.00
2023-01-05T22:11:55.651Z,96.00
2023-01-05T22:14:22.344Z,95.90
2023-01-05T22:16:49.075Z,95.90
2023-01-05T22:19:15.889Z,95.90
2023-01-05T22:21:42.841Z,96.00
2023-01-05T22:24:11.238Z,96.00
2023-01-05T22:26:38.111Z,96.00
2023-01-05T22:29:04.957Z,96.00
2023-01-05T22:31:32.947Z,96.00
2023-01-05T22:34:00.768Z,96.00
2023-01-05T22:36:29.268Z,96.00
2023-01-05T22:38:56.823Z,95.90
2023-01-05T22:41:26.131Z,95.90
2023-01-05T22:43:53.213Z,95.90
2023-01-05T22:46:22.481Z,95.90
2023-01-05T22:48:51.175Z,95.90
2023-01-05T22:51:25.374Z,95.80
2023-01-05T22:53:52.300Z,95.80
2023-01-05T22:56:21.112Z,95.80
2023-01-05T22:58:48.033Z,95.80
2023-01-05T23:01:37.201Z,95.80
2023-01-05T23:04:06.053Z,95.80
2023-01-05T23:06:33.346Z,95.80
2023-01-05T23:09:00.924Z,95.70
2023-01-05T23:11:34.554Z,95.70
2023-01-05T23:14:03.662Z,95.70
2023-01-05T23:16:30.784Z,95.70
2023-01-05T23:18:57.881Z,95.70
2023-01-05T23:21:26.709Z,95.70
2023-01-05T23:23:55.598Z,95.70
2023-01-05T23:26:23.897Z,95.70
2023-01-05T23:28:50.756Z,95.70
2023-01-05T23:31:19.272Z,95.70
2023-01-05T23:33:47.424Z,95.70
2023-01-05T23:36:16.037Z,95.70
2023-01-05T23:38:42.978Z,95.70
2023-01-05T23:41:11.862Z,95.70
2023-01-05T23:43:40.245Z,95.60
2023-01-05T23:46:10.419Z,95.60
2023-01-05T23:48:38.170Z,95.60
2023-01-05T23:51:07.565Z,95.60
2023-01-05T23:53:34.252Z,95.60
2023-01-05T23:56:24.037Z,95.60
2023-01-05T23:58:56.991Z,95.60
